createdAt,value
2022-11-19T00:01:27.039Z,25.52
2022-11-19T00:03:54.438Z,24.63
2022-11-19T00:06:27.118Z,25.17
2022-11-19T00:08:54.766Z,25.38
2022-11-19T00:11:46.204Z,26.85
2022-11-19T00:14:15.490Z,28.10
2022-11-19T00:16:44.213Z,26.42
2022-11-19T00:19:12.009Z,28.17
2022-11-19T00:21:39.222Z,22.38
2022-11-19T00:24:06.789Z,25.20
2022-11-19T00:26:34.290Z,22.75
2022-11-19T00:29:01.508Z,25.98
2022-11-19T00:31:28.557Z,23.08
2022-11-19T00:33:55.797Z,24.60
2022-11-19T00:36:23.770Z,23.30
2022-11-19T00:38:51.105Z,21.77
2022-11-19T00:41:18.492Z,24.20
2022-11-19T00:43:48.723Z,26.38
2022-11-19T00:46:19.224Z,21.45
2022-11-19T00:48:48.666Z,24.50
2022-11-19T00:51:17.269Z,27.55
2022-11-19T00:53:44.590Z,24.88
2022-11-19T00:56:14.070Z,23.85
2022-11-19T00:58:41.859Z,23.35
2022-11-19T01:01:10.392Z,25.65
2022-11-19T01:03:38.778Z,25.73
2022-11-19T01:06:06.968Z,23.60
2022-11-19T01:08:34.699Z,24.58
2022-11-19T01:11:13.628Z,24.67
2022-11-19T01:13:41.705Z,23.25
2022-11-19T01:16:15.060Z,25.38
2022-11-19T01:18:43.869Z,23.80
2022-11-19T01:21:12.735Z,23.30
2022-11-19T01:23:41.239Z,23.63
2022-11-19T01:26:09.359Z,24.98
2022-11-19T01:28:36.610Z,27.17
2022-11-19T01:31:12.400Z,25.48
2022-11-19T01:33:40.292Z,26.40
2022-11-19T01:36:11.883Z,24.13
2022-11-19T01:38:39.059Z,24.02
2022-11-19T01:41:07.258Z,26.38
2022-11-19T01:43:43.914Z,24.00
2022-11-19T01:46:13.449Z,24.38
2022-11-19T01:48:46.923Z,26.27
2022-11-19T01:51:43.031Z,24.15
2022-11-19T01:54:26.586Z,29.05
2022-11-19T01:57:00.525Z,26.98
2022-11-19T01:59:29.731Z,21.98
2022-11-19T02:01:57.293Z,26.00
2022-11-19T02:04:25.762Z,27.10
2022-11-19T02:06:54.725Z,29.88
2022-11-19T02:09:22.349Z,27.13
2022-11-19T02:12:09.739Z,31.08
2022-11-19T02:15:20.299Z,29.15
2022-11-19T02:18:22.531Z,30.65
2022-11-19T02:21:33.840Z,26.73
2022-11-19T02:24:39.139Z,29.90
2022-11-19T02:27:28.384Z,24.27
2022-11-19T02:30:05.192Z,26.00
2022-11-19T02:32:59.040Z,27.90
2022-11-19T02:35:59.361Z,31.90
2022-11-19T02:38:40.850Z,25.20
2022-11-19T02:41:27.800Z,27.67
2022-11-19T02:44:21.205Z,27.58
2022-11-19T02:46:52.495Z,27.35
2022-11-19T02:49:23.793Z,26.33
2022-11-19T02:51:51.001Z,29.25
2022-11-19T02:54:18.311Z,28.42
2022-11-19T02:56:58.988Z,29.90
2022-11-19T02:59:50.769Z,31.63
2022-11-19T03:02:38.042Z,30.95
2022-11-19T03:05:09.319Z,25.92
2022-11-19T03:07:36.723Z,27.05
2022-11-19T03:10:07.914Z,24.90
2022-11-19T03:12:42.961Z,26.13
2022-11-19T03:15:58.240Z,29.90
2022-11-19T03:18:39.649Z,27.05
2022-11-19T03:21:29.960Z,28.52
2022-11-19T03:24:11.560Z,27.23
2022-11-19T03:26:44.881Z,34.10
2022-11-19T03:29:14.435Z,27.50
2022-11-19T03:31:48.071Z,27.83
2022-11-19T03:34:19.547Z,26.20
2022-11-19T03:36:51.277Z,29.13
2022-11-19T03:39:20.947Z,27.75
2022-11-19T03:41:51.249Z,28.63
2022-11-19T03:47:02.203Z,25.92
2022-11-19T03:49:35.495Z,25.90
2022-11-19T03:52:07.923Z,23.88
2022-11-19T03:54:35.330Z,23.80
2022-11-19T03:57:04.402Z,24.52
2022-11-19T03:59:31.644Z,24.25
2022-11-19T04:02:03.678Z,28.02
2022-11-19T04:04:37.175Z,27.65
2022-11-19T04:07:11.094Z,24.45
2022-11-19T04:09:39.601Z,31.52
2022-11-19T04:12:07.917Z,23.08
2022-11-19T04:14:35.044Z,24.92
2022-11-19T04:17:02.204Z,26.05
2022-11-19T04:19:29.313Z,24.17
2022-11-19T04:21:56.502Z,27.13
2022-11-19T04:24:23.693Z,25.63
2022-11-19T04:26:50.956Z,27.73
2022-11-19T04:29:18.329Z,29.15
2022-11-19T04:31:45.650Z,30.55
2022-11-19T04:34:12.860Z,25.85
2022-11-19T04:36:42.216Z,27.85
2022-11-19T04:39:12.575Z,31.30
2022-11-19T04:41:40.953Z,23.73
2022-11-19T04:44:08.175Z,27.42
2022-11-19T04:46:35.399Z,28.17
2022-11-19T04:49:03.292Z,29.45
2022-11-19T04:51:30.441Z,29.88
2022-11-19T04:53:57.640Z,30.15
2022-11-19T04:56:24.763Z,31.08
2022-11-19T04:58:51.913Z,32.85
2022-11-19T05:01:20.763Z,32.50
2022-11-19T05:03:48.838Z,32.33
2022-11-19T05:06:16.291Z,36.15
2022-11-19T05:08:43.434Z,34.22
2022-11-19T05:11:10.890Z,33.30
2022-11-19T05:13:38.008Z,35.17
2022-11-19T05:16:05.420Z,32.10
2022-11-19T05:18:32.634Z,35.30
2022-11-19T05:20:59.796Z,27.58
2022-11-19T05:23:26.921Z,31.77
2022-11-19T05:25:54.096Z,31.60
2022-11-19T05:28:32.721Z,31.58
2022-11-19T05:31:05.531Z,31.25
2022-11-19T05:33:34.162Z,34.55
2022-11-19T05:36:02.831Z,32.77
2022-11-19T05:38:30.279Z,31.17
2022-11-19T05:40:57.443Z,34.90
2022-11-19T05:43:24.683Z,36.17
2022-11-19T05:45:51.959Z,31.50
2022-11-19T05:48:19.102Z,34.38
2022-11-19T05:50:46.199Z,30.50
2022-11-19T05:53:13.373Z,32.17
2022-11-19T05:55:40.471Z,31.90
2022-11-19T05:58:07.680Z,34.20
2022-11-19T06:00:34.850Z,36.58
2022-11-19T06:03:02.080Z,34.08
2022-11-19T06:05:29.264Z,31.63
2022-11-19T06:07:56.400Z,33.45
2022-11-19T06:10:23.706Z,34.63
2022-11-19T06:12:50.879Z,27.85
2022-11-19T06:15:18.140Z,30.55
2022-11-19T06:17:45.149Z,29.88
2022-11-19T06:20:12.281Z,28.60
2022-11-19T06:22:40.239Z,31.08
2022-11-19T06:25:08.215Z,30.08
2022-11-19T06:27:35.563Z,28.17
2022-11-19T06:30:03.086Z,30.80
2022-11-19T06:32:30.183Z,28.35
2022-11-19T06:34:57.370Z,29.58
2022-11-19T06:37:24.554Z,30.02
2022-11-19T06:39:51.762Z,29.90
2022-11-19T06:42:37.163Z,32.33
2022-11-19T06:45:13.648Z,27.13
2022-11-19T06:47:42.100Z,27.33
2022-11-19T06:50:10.785Z,24.75
2022-11-19T06:52:38.411Z,28.65
2022-11-19T06:55:06.242Z,26.50
2022-11-19T06:57:33.772Z,27.45
2022-11-19T07:00:00.965Z,22.27
2022-11-19T07:02:28.330Z,24.50
2022-11-19T07:04:55.537Z,23.15
2022-11-19T07:07:22.660Z,25.25
2022-11-19T07:09:49.933Z,24.67
2022-11-19T07:12:17.003Z,22.80
2022-11-19T07:14:44.236Z,25.77
2022-11-19T07:17:11.452Z,23.58
2022-11-19T07:19:38.613Z,54.28
2022-11-19T07:22:05.890Z,23.55
2022-11-19T07:24:33.013Z,23.70
2022-11-19T07:27:00.130Z,23.10
2022-11-19T07:29:27.231Z,23.58
2022-11-19T07:31:54.328Z,22.75
2022-11-19T07:34:21.740Z,22.55
2022-11-19T07:36:50.247Z,22.05
2022-11-19T07:39:17.991Z,23.02
2022-11-19T07:42:03.852Z,19.10
2022-11-19T07:44:33.331Z,18.90
2022-11-19T07:47:00.721Z,21.52
2022-11-19T07:49:27.914Z,19.88
2022-11-19T07:51:55.164Z,20.40
2022-11-19T07:54:22.472Z,18.95
2022-11-19T07:56:49.791Z,18.58
2022-11-19T07:59:17.693Z,16.02
2022-11-19T08:01:45.279Z,16.40
2022-11-19T08:04:12.472Z,20.83
2022-11-19T08:06:39.692Z,20.48
2022-11-19T08:09:06.841Z,17.13
2022-11-19T08:11:34.009Z,18.58
2022-11-19T08:14:02.260Z,19.55
2022-11-19T08:16:48.351Z,18.95
2022-11-19T08:19:16.890Z,16.98
2022-11-19T08:21:46.599Z,15.40
2022-11-19T08:24:15.411Z,13.77
2022-11-19T08:26:43.282Z,15.50
2022-11-19T08:29:16.298Z,16.30
2022-11-19T08:31:46.082Z,17.13
2022-11-19T08:34:13.344Z,16.55
2022-11-19T08:36:40.636Z,15.07
2022-11-19T08:39:08.134Z,16.77
2022-11-19T08:41:53.629Z,17.40
2022-11-19T08:44:21.674Z,16.70
2022-11-19T08:46:49.249Z,17.52
2022-11-19T08:49:16.390Z,16.33
2022-11-19T08:51:43.691Z,18.85
2022-11-19T08:54:10.812Z,19.20
2022-11-19T08:56:38.000Z,16.60
2022-11-19T08:59:05.594Z,18.88
2022-11-19T09:01:32.653Z,17.92
2022-11-19T09:03:59.869Z,19.13
2022-11-19T09:06:27.051Z,18.65
2022-11-19T09:08:54.278Z,22.77
2022-11-19T09:11:22.763Z,25.20
2022-11-19T09:13:50.102Z,22.30
2022-11-19T09:16:17.690Z,21.63
2022-11-19T09:18:44.913Z,18.80
2022-11-19T09:21:12.851Z,23.20
2022-11-19T09:23:41.722Z,19.58
2022-11-19T09:26:13.972Z,23.02
2022-11-19T09:28:43.055Z,21.73
2022-11-19T09:31:16.728Z,24.23
2022-11-19T09:33:46.253Z,24.42
2022-11-19T09:36:14.213Z,24.58
2022-11-19T09:38:41.939Z,25.48
2022-11-19T09:41:17.921Z,23.05
2022-11-19T09:44:05.408Z,22.55
2022-11-19T09:46:43.322Z,23.33
2022-11-19T09:49:17.371Z,21.38
2022-11-19T09:51:52.687Z,22.60
2022-11-19T09:54:22.164Z,21.83
2022-11-19T09:56:54.927Z,18.52
2022-11-19T09:59:30.882Z,24.13
2022-11-19T10:01:58.168Z,22.33
2022-11-19T10:04:29.000Z,22.00
2022-11-19T10:07:11.584Z,22.60
2022-11-19T10:09:51.671Z,19.33
2022-11-19T10:15:05.279Z,22.38
2022-11-19T10:17:50.003Z,21.17
2022-11-19T10:20:49.320Z,22.95
2022-11-19T10:23:27.846Z,20.90
2022-11-19T10:26:05.418Z,22.15
2022-11-19T10:28:37.798Z,26.05
2022-11-19T10:31:16.365Z,20.33
2022-11-19T10:33:54.849Z,25.45
2022-11-19T10:36:28.658Z,23.50
2022-11-19T10:39:04.846Z,23.08
2022-11-19T10:41:42.872Z,20.83
2022-11-19T10:44:37.911Z,24.38
2022-11-19T10:47:07.692Z,18.52
2022-11-19T10:49:39.611Z,21.85
2022-11-19T10:52:17.730Z,20.65
2022-11-19T10:54:47.185Z,20.92
2022-11-19T10:57:19.374Z,17.98
2022-11-19T10:59:50.569Z,21.10
2022-11-19T11:02:28.016Z,16.80
2022-11-19T11:05:17.397Z,15.43
2022-11-19T11:07:59.664Z,16.98
2022-11-19T11:10:32.645Z,15.75
2022-11-19T11:13:26.919Z,16.13
2022-11-19T11:15:55.014Z,16.33
2022-11-19T11:18:29.802Z,16.15
2022-11-19T11:20:57.682Z,13.77
2022-11-19T11:23:26.806Z,15.38
2022-11-19T11:26:14.219Z,24.23
2022-11-19T11:28:56.000Z,12.88
2022-11-19T11:31:34.990Z,15.27
2022-11-19T11:34:03.161Z,13.30
2022-11-19T11:36:33.881Z,15.18
2022-11-19T11:39:02.642Z,12.57
2022-11-19T11:42:04.970Z,14.95
2022-11-19T11:44:30.087Z,15.43
2022-11-19T11:47:03.449Z,13.98
2022-11-19T11:49:35.346Z,16.20
2022-11-19T11:52:13.179Z,13.80
2022-11-19T11:55:00.735Z,13.88
2022-11-19T11:57:36.359Z,12.93
2022-11-19T12:00:32.424Z,10.75
2022-11-19T12:03:05.499Z,12.57
2022-11-19T12:06:03.417Z,10.95
2022-11-19T12:08:51.882Z,11.10
2022-11-19T12:11:53.615Z,11.98
2022-11-19T12:14:31.833Z,13.18
2022-11-19T12:17:08.459Z,13.07
2022-11-19T12:20:03.478Z,13.52
2022-11-19T12:22:55.971Z,17.90
2022-11-19T12:25:55.289Z,9.00
2022-11-19T12:28:56.488Z,9.90
2022-11-19T12:31:35.440Z,17.42
2022-11-19T12:34:22.400Z,15.30
2022-11-19T12:37:13.612Z,16.77
2022-11-19T12:40:02.409Z,17.48
2022-11-19T12:42:51.136Z,18.15
2022-11-19T12:45:42.702Z,23.65
2022-11-19T12:48:34.248Z,19.50
2022-11-19T12:51:47.986Z,19.77
2022-11-19T12:54:35.760Z,21.77
2022-11-19T12:57:39.339Z,22.08
2022-11-19T13:00:11.563Z,21.25
2022-11-19T13:02:49.233Z,21.20
2022-11-19T13:05:22.571Z,21.50
2022-11-19T13:08:00.164Z,25.20
2022-11-19T13:10:36.147Z,23.00
2022-11-19T13:13:04.533Z,23.00
2022-11-19T13:15:39.914Z,23.52
2022-11-19T13:18:14.297Z,22.75
2022-11-19T13:20:53.051Z,23.92
2022-11-19T13:23:37.701Z,25.48
2022-11-19T13:26:18.049Z,28.67
2022-11-19T13:28:56.320Z,24.73
2022-11-19T13:31:40.078Z,23.25
2022-11-19T13:34:28.149Z,26.73
2022-11-19T13:37:27.732Z,25.65
2022-11-19T13:40:03.980Z,26.40
2022-11-19T13:43:04.077Z,25.15
2022-11-19T13:45:40.409Z,24.90
2022-11-19T13:48:25.399Z,23.17
2022-11-19T13:50:56.152Z,25.75
2022-11-19T13:53:35.652Z,27.73
2022-11-19T13:56:02.984Z,22.55
2022-11-19T13:58:35.613Z,27.80
2022-11-19T14:01:30.981Z,24.27
2022-11-19T14:04:16.801Z,31.45
2022-11-19T14:06:56.280Z,26.65
2022-11-19T14:09:28.721Z,29.10
2022-11-19T14:12:08.319Z,25.63
2022-11-19T14:15:17.291Z,29.10
2022-11-19T14:18:43.483Z,26.88
2022-11-19T14:21:49.724Z,28.33
2022-11-19T14:24:44.058Z,29.42
2022-11-19T14:27:19.113Z,30.65
2022-11-19T14:29:46.242Z,29.50
2022-11-19T14:32:13.290Z,30.98
2022-11-19T14:34:40.434Z,30.10
2022-11-19T14:37:20.613Z,34.40
2022-11-19T14:42:22.340Z,32.90
2022-11-19T14:45:12.161Z,37.63
2022-11-19T14:47:44.049Z,33.97
2022-11-19T14:50:27.209Z,34.65
2022-11-19T14:53:00.808Z,35.30
2022-11-19T14:55:34.057Z,36.47
2022-11-19T14:58:18.422Z,35.72
2022-11-19T15:00:45.823Z,37.42
2022-11-19T15:03:21.370Z,34.92
2022-11-19T15:05:49.362Z,35.22
2022-11-19T15:08:19.262Z,41.33
2022-11-19T15:11:03.341Z,38.63
2022-11-19T15:13:32.479Z,35.00
2022-11-19T15:16:08.663Z,36.65
2022-11-19T15:18:41.668Z,37.08
2022-11-19T15:21:31.961Z,36.83
2022-11-19T15:24:24.861Z,35.72
2022-11-19T15:26:55.070Z,32.85
2022-11-19T15:32:39.921Z,36.90
2022-11-19T15:35:19.161Z,33.55
2022-11-19T15:38:19.983Z,34.10
2022-11-19T15:40:50.299Z,40.00
2022-11-19T15:43:38.004Z,37.80
2022-11-19T15:46:11.712Z,34.40
2022-11-19T15:49:16.639Z,39.58
2022-11-19T15:52:02.650Z,35.50
2022-11-19T15:54:35.721Z,40.08
2022-11-19T15:57:17.841Z,38.13
2022-11-19T15:59:48.330Z,35.60
2022-11-19T16:02:41.853Z,41.45
2022-11-19T16:05:27.280Z,39.83
2022-11-19T16:07:56.289Z,35.58
2022-11-19T16:10:47.192Z,35.55
2022-11-19T16:13:41.438Z,36.47
2022-11-19T16:16:45.918Z,32.90
2022-11-19T16:19:17.242Z,35.50
2022-11-19T16:21:49.425Z,36.72
2022-11-19T16:24:58.011Z,37.65
2022-11-19T16:27:25.713Z,32.45
2022-11-19T16:29:53.033Z,30.30
2022-11-19T16:32:23.166Z,32.72
2022-11-19T16:37:20.859Z,32.85
2022-11-19T16:39:53.140Z,34.45
2022-11-19T16:42:27.518Z,30.42
2022-11-19T16:45:24.931Z,35.47
2022-11-19T16:47:57.863Z,32.80
2022-11-19T16:50:36.250Z,30.70
2022-11-19T16:53:05.600Z,32.38
2022-11-19T16:55:34.720Z,34.25
2022-11-19T16:58:03.689Z,35.67
2022-11-19T17:00:36.258Z,35.85
2022-11-19T17:03:18.032Z,36.50
2022-11-19T17:05:47.919Z,39.38
2022-11-19T17:08:25.488Z,37.95
2022-11-19T17:11:38.965Z,39.03
2022-11-19T17:14:35.328Z,38.78
2022-11-19T17:17:03.965Z,36.45
2022-11-19T17:19:36.001Z,42.63
2022-11-19T17:22:07.158Z,36.35
2022-11-19T17:24:45.977Z,34.60
2022-11-19T17:27:28.082Z,36.47
2022-11-19T17:30:19.546Z,32.47
2022-11-19T17:32:49.587Z,34.47
2022-11-19T17:38:17.731Z,32.83
2022-11-19T17:40:49.605Z,32.42
2022-11-19T17:43:40.043Z,31.33
2022-11-19T17:46:07.199Z,37.78
2022-11-19T17:48:34.704Z,32.33
2022-11-19T17:51:01.830Z,31.02
2022-11-19T17:53:29.004Z,31.02
2022-11-19T17:55:57.719Z,35.28
2022-11-19T17:58:24.866Z,31.48
2022-11-19T18:00:52.194Z,33.03
2022-11-19T18:03:19.480Z,34.95
2022-11-19T18:05:48.972Z,36.90
2022-11-19T18:08:16.938Z,40.97
2022-11-19T18:10:47.952Z,36.00
2022-11-19T18:13:20.330Z,35.45
2022-11-19T18:15:47.452Z,34.90
2022-11-19T18:18:14.632Z,40.08
2022-11-19T18:20:42.012Z,43.55
2022-11-19T18:23:13.345Z,36.70
2022-11-19T18:25:40.965Z,36.72
2022-11-19T18:28:08.549Z,39.58
2022-11-19T18:30:36.330Z,38.97
2022-11-19T18:33:03.817Z,39.20
2022-11-19T18:35:32.842Z,38.42
2022-11-19T18:38:01.129Z,35.83
2022-11-19T18:40:28.423Z,34.95
2022-11-19T18:43:14.275Z,34.45
2022-11-19T18:45:41.372Z,31.80
2022-11-19T18:48:08.573Z,32.90
2022-11-19T18:50:35.734Z,31.50
2022-11-19T18:53:03.065Z,34.67
2022-11-19T18:55:30.301Z,32.97
2022-11-19T18:57:57.416Z,31.65
2022-11-19T19:00:24.560Z,33.25
2022-11-19T19:02:51.714Z,34.75
2022-11-19T19:05:19.071Z,34.80
2022-11-19T19:07:46.124Z,30.23
2022-11-19T19:10:14.132Z,32.42
2022-11-19T19:12:42.723Z,31.55
2022-11-19T19:15:10.322Z,32.72
2022-11-19T19:17:38.484Z,34.55
2022-11-19T19:20:06.339Z,30.48
2022-11-19T19:22:33.449Z,36.42
2022-11-19T19:25:00.740Z,33.67
2022-11-19T19:27:27.889Z,30.10
2022-11-19T19:29:54.923Z,30.52
2022-11-19T19:32:22.049Z,33.92
2022-11-19T19:34:49.203Z,37.25
2022-11-19T19:37:16.374Z,31.60
2022-11-19T19:39:43.481Z,35.90
2022-11-19T19:42:11.119Z,37.00
2022-11-19T19:44:38.369Z,36.92
2022-11-19T19:47:06.138Z,35.75
2022-11-19T19:49:38.430Z,36.50
2022-11-19T19:52:06.120Z,35.92
2022-11-19T19:54:33.232Z,35.53
2022-11-19T19:57:00.366Z,35.97
2022-11-19T19:59:27.619Z,40.03
2022-11-19T20:01:55.348Z,35.13
2022-11-19T20:04:22.495Z,37.08
2022-11-19T20:06:51.362Z,37.75
2022-11-19T20:09:18.760Z,36.20
2022-11-19T20:11:45.880Z,38.35
2022-11-19T20:14:13.203Z,37.30
2022-11-19T20:16:41.711Z,36.55
2022-11-19T20:19:12.103Z,34.65
2022-11-19T20:21:39.295Z,38.72
2022-11-19T20:24:12.129Z,38.42
2022-11-19T20:26:41.170Z,40.78
2022-11-19T20:29:11.169Z,40.10
2022-11-19T20:31:38.593Z,37.88
2022-11-19T20:34:05.940Z,38.20
2022-11-19T20:36:34.632Z,46.50
2022-11-19T20:39:02.326Z,39.22
2022-11-19T20:41:48.444Z,38.60
2022-11-19T20:44:20.757Z,42.97
2022-11-19T20:46:59.289Z,36.47
2022-11-19T20:49:35.192Z,40.78
2022-11-19T20:52:03.834Z,42.75
2022-11-19T20:54:31.457Z,44.88
2022-11-19T20:56:59.455Z,46.03
2022-11-19T20:59:27.319Z,47.17
2022-11-19T21:01:56.620Z,42.80
2022-11-19T21:04:25.729Z,44.17
2022-11-19T21:06:54.249Z,44.38
2022-11-19T21:09:22.109Z,45.92
2022-11-19T21:11:49.493Z,46.35
2022-11-19T21:14:16.680Z,47.95
2022-11-19T21:16:44.000Z,47.45
2022-11-19T21:19:14.287Z,48.42
2022-11-19T21:21:41.965Z,47.50
2022-11-19T21:24:09.407Z,50.03
2022-11-19T21:26:36.618Z,48.22
2022-11-19T21:29:03.971Z,54.38
2022-11-19T21:31:39.997Z,49.35
2022-11-19T21:34:15.303Z,50.15
2022-11-19T21:36:43.817Z,48.50
2022-11-19T21:39:12.091Z,48.60
2022-11-19T21:41:39.413Z,49.80
2022-11-19T21:44:06.911Z,49.30
2022-11-19T21:46:34.849Z,47.97
2022-11-19T21:49:02.367Z,49.67
2022-11-19T21:51:29.660Z,51.90
2022-11-19T21:53:58.010Z,45.55
2022-11-19T21:56:26.518Z,49.58
2022-11-19T21:58:53.700Z,51.38
2022-11-19T22:01:21.108Z,47.17
2022-11-19T22:03:48.360Z,47.65
2022-11-19T22:06:15.673Z,45.63
2022-11-19T22:08:43.200Z,50.28
2022-11-19T22:11:30.338Z,48.00
2022-11-19T22:14:03.423Z,44.33
2022-11-19T22:16:32.283Z,43.53
2022-11-19T22:18:59.562Z,45.00
2022-11-19T22:21:27.534Z,42.60
2022-11-19T22:23:54.890Z,44.60
2022-11-19T22:26:22.161Z,45.50
2022-11-19T22:28:49.402Z,41.53
2022-11-19T22:31:16.601Z,40.95
2022-11-19T22:33:43.839Z,40.63
2022-11-19T22:36:11.600Z,42.17
2022-11-19T22:38:39.653Z,40.45
2022-11-19T22:41:09.598Z,40.72
2022-11-19T22:43:37.631Z,39.50
2022-11-19T22:46:05.599Z,46.05
2022-11-19T22:48:34.078Z,43.50
2022-11-19T22:51:10.159Z,41.17
2022-11-19T22:53:37.483Z,40.42
2022-11-19T22:56:06.533Z,45.65
2022-11-19T22:58:34.252Z,42.13
2022-11-19T23:01:01.434Z,40.08
2022-11-19T23:03:28.665Z,41.45
2022-11-19T23:05:56.804Z,39.40
2022-11-19T23:08:23.857Z,41.30
2022-11-19T23:11:01.783Z,34.53
2022-11-19T23:13:33.812Z,34.92
2022-11-19T23:16:14.811Z,32.80
2022-11-19T23:18:50.730Z,33.28
2022-11-19T23:21:23.518Z,32.38
2022-11-19T23:23:51.290Z,33.70
2022-11-19T23:26:21.609Z,36.97
2022-11-19T23:28:48.740Z,31.65
2022-11-19T23:31:20.366Z,32.90
2022-11-19T23:33:48.436Z,32.40
2022-11-19T23:36:18.264Z,25.15
2022-11-19T23:38:45.634Z,24.38
2022-11-19T23:41:14.830Z,26.55
2022-11-19T23:43:43.116Z,27.33
2022-11-19T23:46:18.731Z,28.88
2022-11-19T23:48:47.920Z,25.23
2022-11-19T23:51:20.599Z,24.70
2022-11-19T23:53:48.475Z,24.30
2022-11-19T23:56:17.359Z,26.27
2022-11-19T23:58:45.160Z,28.38
